Time;durP1;ratioP1;P1;durP2;ratioP2;P2;SDS_P1;SDS_P2;PMS_P1;PMS_P2;Temp;Humidity;BMP_temperature;BMP_pressure;BME280_temperature;BME280_humidity;BME280_pressure;Samples;Min_cycle;Max_cycle;Signal;HPM_P1;HPM_P2
2022/03/03 00:00:11;;;;;;;21.23;11.32;;;6.30;40.00;;;;;;4960333;28;20046;-45
2022/03/03 00:02:39;;;;;;;20.17;10.98;;;6.20;40.10;;;;;;5012742;23;20362;-90
2022/03/03 00:05:08;;;;;;;21.27;11.27;;;6.20;40.10;;;;;;5037476;23;20061;-41
2022/03/03 00:07:36;;;;;;;22.10;11.88;;;6.20;40.20;;;;;;5046230;28;20060;-42
2022/03/03 00:10:05;;;;;;;19.85;10.70;;;6.20;40.40;;;;;;5055016;28;20056;-42
2022/03/03 00:12:33;;;;;;;21.00;10.95;;;6.10;40.30;;;;;;5050537;28;20504;-41
2022/03/03 00:15:01;;;;;;;19.80;10.20;;;6.10;40.40;;;;;;5047660;28;20053;-42
2022/03/03 00:17:30;;;;;;;19.42;10.75;;;6.10;40.40;;;;;;5044321;28;20053;-42
2022/03/03 00:19:58;;;;;;;19.35;10.02;;;6.10;40.50;;;;;;5042025;28;20053;-42
2022/03/03 00:22:25;;;;;;;21.40;11.23;;;6.00;40.50;;;;;;5056583;28;20387;-42
2022/03/03 00:24:53;;;;;;;21.38;10.25;;;6.00;40.60;;;;;;5047348;28;20412;-42
2022/03/03 00:27:21;;;;;;;18.63;10.38;;;6.00;40.60;;;;;;5051241;28;20492;-42
2022/03/03 00:29:49;;;;;;;19.90;11.00;;;6.00;40.70;;;;;;5053519;28;20053;-42
2022/03/03 00:32:16;;;;;;;22.55;10.95;;;5.90;40.70;;;;;;5044839;28;20059;-42
2022/03/03 00:34:45;;;;;;;19.63;10.80;;;5.90;40.80;;;;;;5049953;28;20063;-42
2022/03/03 00:37:13;;;;;;;20.63;10.55;;;5.90;40.80;;;;;;5042312;28;20068;-43
2022/03/03 00:39:40;;;;;;;18.95;10.10;;;5.80;40.90;;;;;;5051203;28;20115;-42
2022/03/03 00:42:08;;;;;;;20.88;10.77;;;5.80;41.00;;;;;;5051313;28;20060;-42
2022/03/03 00:44:36;;;;;;;20.58;11.25;;;5.80;41.00;;;;;;5046482;28;20049;-42
2022/03/03 00:47:03;;;;;;;23.20;13.02;;;5.80;41.10;;;;;;5045742;28;20060;-42
2022/03/03 00:49:31;;;;;;;25.17;11.25;;;5.80;41.10;;;;;;5054704;28;20085;-44
2022/03/03 00:52:00;;;;;;;15.32;9.43;;;5.80;41.20;;;;;;5056876;28;20068;-42
2022/03/03 00:54:27;;;;;;;19.35;10.57;;;5.80;41.20;;;;;;5048192;28;20049;-42
2022/03/03 00:56:55;;;;;;;19.15;11.32;;;5.80;41.20;;;;;;5050118;28;20063;-42
2022/03/03 00:59:23;;;;;;;22.20;11.05;;;5.70;41.30;;;;;;5045906;28;20049;-43
2022/03/03 01:01:50;;;;;;;17.52;10.18;;;5.70;41.30;;;;;;5054412;28;20381;-42
2022/03/03 01:04:19;;;;;;;20.30;9.75;;;5.70;41.30;;;;;;5062757;28;20052;-42
2022/03/03 01:06:47;;;;;;;15.20;9.20;;;5.70;41.40;;;;;;5066573;28;20059;-42
2022/03/03 01:09:16;;;;;;;18.60;9.68;;;5.60;41.30;;;;;;5068663;28;20402;-43
2022/03/03 01:11:43;;;;;;;16.73;9.73;;;5.70;41.40;;;;;;5071247;28;20498;-42
2022/03/03 01:14:11;;;;;;;18.90;10.65;;;5.60;41.40;;;;;;5065613;28;20087;-42
2022/03/03 01:16:38;;;;;;;17.83;10.00;;;5.60;41.60;;;;;;5078605;28;20522;-42
2022/03/03 01:19:06;;;;;;;20.00;11.57;;;5.60;41.50;;;;;;5064954;28;20139;-42
2022/03/03 01:21:34;;;;;;;17.63;10.27;;;5.60;41.60;;;;;;5068371;28;20059;-42
2022/03/03 01:24:01;;;;;;;20.08;11.05;;;5.50;41.50;;;;;;5069210;28;20048;-42
2022/03/03 01:26:30;;;;;;;17.80;10.60;;;5.50;41.50;;;;;;5076088;28;20055;-42
2022/03/03 01:28:58;;;;;;;21.52;11.70;;;5.50;41.60;;;;;;5066181;28;20056;-42
2022/03/03 01:31:25;;;;;;;19.13;10.77;;;5.40;41.60;;;;;;5075685;28;20048;-42
2022/03/03 01:33:53;;;;;;;17.52;10.80;;;5.40;41.70;;;;;;5069371;28;20094;-42
2022/03/03 01:36:20;;;;;;;16.30;9.82;;;5.40;41.80;;;;;;5077724;28;20059;-42
2022/03/03 01:38:48;;;;;;;19.35;10.63;;;5.40;41.80;;;;;;5070187;28;20061;-42
2022/03/03 01:41:16;;;;;;;23.38;12.65;;;5.30;41.80;;;;;;5068466;28;20097;-44
2022/03/03 01:43:45;;;;;;;21.00;11.00;;;5.30;41.90;;;;;;5066923;28;20063;-44
2022/03/03 01:46:12;;;;;;;21.50;11.48;;;5.30;42.10;;;;;;5073173;28;20412;-42
2022/03/03 01:48:40;;;;;;;19.27;10.88;;;5.30;42.10;;;;;;5071694;28;20098;-42
2022/03/03 01:51:07;;;;;;;21.08;12.02;;;5.30;42.10;;;;;;5077361;28;20051;-41
2022/03/03 01:53:35;;;;;;;17.75;10.35;;;5.20;42.10;;;;;;5062514;28;20052;-45
2022/03/03 01:56:03;;;;;;;21.30;11.20;;;5.20;42.20;;;;;;5061765;28;20044;-43
2022/03/03 01:58:31;;;;;;;23.08;11.77;;;5.20;42.20;;;;;;5077634;28;20048;-42
2022/03/03 02:01:00;;;;;;;23.73;12.60;;;5.10;42.20;;;;;;5073692;28;20470;-41
2022/03/03 02:03:27;;;;;;;20.80;11.07;;;5.10;42.30;;;;;;5066021;28;20053;-42
2022/03/03 02:05:55;;;;;;;21.48;11.65;;;5.10;42.30;;;;;;5070042;28;20044;-42
2022/03/03 02:08:23;;;;;;;19.40;10.48;;;5.10;42.40;;;;;;5073536;28;20053;-42
2022/03/03 02:10:52;;;;;;;21.27;11.27;;;5.10;42.40;;;;;;5067434;28;20095;-42
2022/03/03 02:13:21;;;;;;;20.70;11.30;;;5.10;42.40;;;;;;5067203;28;20051;-42
2022/03/03 02:15:50;;;;;;;21.90;11.98;;;5.00;42.50;;;;;;5063113;28;20102;-46
2022/03/03 02:18:19;;;;;;;18.60;10.52;;;5.00;42.60;;;;;;5072329;28;20861;-44
2022/03/03 02:20:48;;;;;;;24.27;12.63;;;5.00;42.60;;;;;;5065614;28;20052;-42
2022/03/03 02:23:18;;;;;;;18.02;11.25;;;5.00;42.70;;;;;;5065630;28;20048;-42
2022/03/03 02:25:46;;;;;;;22.10;12.07;;;5.00;42.80;;;;;;5063923;28;20060;-42
2022/03/03 02:28:14;;;;;;;18.70;11.60;;;5.00;42.80;;;;;;5064194;28;20420;-42
2022/03/03 02:30:42;;;;;;;20.98;11.15;;;4.90;42.90;;;;;;5067855;28;20048;-42
2022/03/03 02:33:09;;;;;;;22.98;12.50;;;4.90;42.90;;;;;;5063128;28;20416;-42
2022/03/03 02:35:37;;;;;;;19.88;10.88;;;4.90;43.00;;;;;;5066426;28;20045;-41
2022/03/03 02:38:06;;;;;;;28.30;13.05;;;4.90;43.00;;;;;;5067940;28;20063;-42
2022/03/03 02:40:33;;;;;;;26.60;12.32;;;4.90;43.20;;;;;;5069353;28;20067;-42
2022/03/03 02:43:01;;;;;;;20.30;11.55;;;4.90;43.70;;;;;;5064510;28;20086;-42
2022/03/03 02:45:28;;;;;;;23.05;12.38;;;4.80;43.10;;;;;;5068282;28;20546;-41
2022/03/03 02:47:56;;;;;;;20.98;10.25;;;4.80;43.10;;;;;;5065508;28;20392;-42
2022/03/03 02:50:24;;;;;;;21.75;10.88;;;4.80;43.10;;;;;;5064947;28;20052;-44
2022/03/03 02:52:53;;;;;;;19.45;11.10;;;4.80;43.20;;;;;;5064638;28;20047;-42
2022/03/03 02:55:22;;;;;;;19.45;10.48;;;4.80;43.20;;;;;;5071851;28;20044;-41
2022/03/03 02:57:55;;;;;;;21.83;11.23;;;4.80;43.20;;;;;;5064817;28;20060;-42
2022/03/03 03:00:23;;;;;;;25.80;11.32;;;4.80;43.20;;;;;;5069917;28;20052;-42
2022/03/03 03:02:51;;;;;;;21.75;11.27;;;4.80;43.30;;;;;;5071832;28;20060;-45
2022/03/03 03:05:19;;;;;;;28.17;13.35;;;4.70;43.30;;;;;;5065112;28;20684;-42
2022/03/03 03:07:47;;;;;;;20.75;11.75;;;4.70;43.40;;;;;;5063044;28;20055;-41
2022/03/03 03:10:15;;;;;;;18.80;10.02;;;4.70;43.50;;;;;;5066376;28;20064;-42
2022/03/03 03:12:44;;;;;;;21.58;11.43;;;4.70;43.40;;;;;;5072275;28;20059;-41
2022/03/03 03:15:12;;;;;;;19.35;11.07;;;4.70;43.50;;;;;;5063568;28;20052;-41
2022/03/03 03:17:40;;;;;;;20.30;11.30;;;4.70;43.50;;;;;;5074318;28;20056;-42
2022/03/03 03:20:09;;;;;;;20.88;10.90;;;4.70;43.60;;;;;;5066427;28;20045;-43
2022/03/03 03:22:37;;;;;;;19.35;11.30;;;4.60;43.60;;;;;;5061320;28;23092;-43
2022/03/03 03:25:05;;;;;;;20.35;11.50;;;4.60;43.70;;;;;;5067109;28;20060;-42
2022/03/03 03:27:33;;;;;;;17.58;10.77;;;4.60;43.70;;;;;;5066416;28;20048;-42
2022/03/03 03:30:02;;;;;;;22.90;11.63;;;4.60;43.70;;;;;;5067276;28;20518;-42
2022/03/03 03:32:29;;;;;;;20.58;10.57;;;4.60;43.60;;;;;;5275290;22;20060;-41
2022/03/03 03:34:57;;;;;;;19.60;11.15;;;4.60;43.60;;;;;;5049830;28;20060;-42
2022/03/03 03:43:15;;;;;;;20.33;11.35;;;4.50;43.70;;;;;;5015519;28;20072;-43
2022/03/03 03:45:44;;;;;;;16.30;10.32;;;4.50;43.80;;;;;;5020510;28;20046;-41
2022/03/03 03:48:12;;;;;;;22.15;11.93;;;4.50;43.80;;;;;;5028658;28;20057;-42
2022/03/03 03:50:39;;;;;;;20.73;11.85;;;4.40;43.80;;;;;;5020544;28;20053;-41
2022/03/03 03:53:07;;;;;;;23.20;11.70;;;4.40;43.80;;;;;;5020553;28;20448;-42
2022/03/03 03:55:34;;;;;;;18.67;10.90;;;4.40;43.80;;;;;;5021480;28;20477;-42
2022/03/03 03:58:02;;;;;;;22.65;11.75;;;4.40;43.80;;;;;;5021570;28;20064;-42
2022/03/03 04:00:30;;;;;;;20.90;11.70;;;4.40;43.90;;;;;;5020356;28;20054;-42
2022/03/03 04:02:59;;;;;;;19.92;11.15;;;4.40;43.90;;;;;;5021403;28;20057;-41
2022/03/03 04:05:27;;;;;;;21.75;12.18;;;4.30;43.90;;;;;;5020100;28;20057;-42
2022/03/03 04:07:54;;;;;;;20.70;11.38;;;4.30;44.50;;;;;;5018704;28;20079;-41
2022/03/03 04:10:22;;;;;;;22.60;11.77;;;4.30;44.00;;;;;;5020236;28;20140;-41
2022/03/03 04:12:49;;;;;;;22.55;12.07;;;4.30;44.00;;;;;;5019109;28;20049;-41
2022/03/03 04:15:17;;;;;;;24.75;11.93;;;4.30;44.00;;;;;;5021985;28;20057;-42
2022/03/03 04:17:45;;;;;;;20.77;11.35;;;4.20;44.00;;;;;;5025355;28;20545;-46
2022/03/03 04:20:14;;;;;;;19.58;11.27;;;4.20;44.00;;;;;;5023241;28;20416;-42
2022/03/03 04:22:42;;;;;;;23.13;11.75;;;4.20;44.20;;;;;;5023612;28;20061;-44
2022/03/03 04:25:11;;;;;;;22.77;11.60;;;4.20;44.30;;;;;;5025378;28;20057;-41
2022/03/03 04:27:39;;;;;;;23.27;11.68;;;4.20;44.30;;;;;;5023304;28;20049;-41
2022/03/03 04:30:09;;;;;;;23.58;11.90;;;4.20;44.30;;;;;;5018032;28;20057;-42
2022/03/03 04:32:37;;;;;;;20.52;11.57;;;4.20;44.40;;;;;;5021958;28;20045;-41
2022/03/03 04:35:08;;;;;;;21.88;11.38;;;4.20;44.50;;;;;;5022155;28;20057;-43
2022/03/03 04:37:37;;;;;;;21.10;11.85;;;4.10;44.40;;;;;;5021871;28;20512;-41
2022/03/03 04:40:06;;;;;;;21.35;11.88;;;4.10;44.50;;;;;;5023338;28;20045;-42
2022/03/03 04:42:34;;;;;;;21.88;11.38;;;4.10;44.50;;;;;;5023260;28;20069;-41
2022/03/03 04:45:02;;;;;;;20.52;11.65;;;4.10;44.60;;;;;;5020952;28;20053;-41
2022/03/03 04:47:29;;;;;;;21.48;11.68;;;4.10;44.70;;;;;;5020452;28;20405;-42
2022/03/03 04:49:57;;;;;;;26.55;13.95;;;4.10;44.80;;;;;;5019465;28;20571;-41
2022/03/03 04:52:24;;;;;;;22.52;11.82;;;4.10;44.80;;;;;;5022931;28;20049;-41
2022/03/03 04:54:54;;;;;;;23.95;12.38;;;4.10;44.90;;;;;;5020222;28;20061;-41
2022/03/03 04:57:22;;;;;;;27.63;12.48;;;4.10;44.90;;;;;;5021562;28;20516;-41
2022/03/03 04:59:49;;;;;;;18.95;11.52;;;4.00;44.90;;;;;;5023645;28;20091;-41
2022/03/03 05:02:17;;;;;;;25.17;11.90;;;4.00;44.90;;;;;;5019164;28;20414;-42
2022/03/03 05:04:44;;;;;;;23.27;12.55;;;4.00;44.90;;;;;;5019743;28;20052;-42
2022/03/03 05:07:12;;;;;;;24.52;12.05;;;4.00;44.90;;;;;;5021683;28;20050;-45
2022/03/03 05:09:39;;;;;;;23.25;12.55;;;4.00;44.90;;;;;;5024278;28;20049;-42
2022/03/03 05:12:10;;;;;;;26.48;13.30;;;4.00;45.00;;;;;;5022711;28;20053;-41
2022/03/03 05:14:37;;;;;;;27.55;14.18;;;4.00;45.10;;;;;;5020054;28;20053;-41
2022/03/03 05:17:05;;;;;;;25.27;12.52;;;4.00;45.10;;;;;;5020467;28;20405;-44
2022/03/03 05:19:33;;;;;;;24.88;12.43;;;4.00;45.10;;;;;;5019378;28;20053;-42
2022/03/03 05:22:00;;;;;;;22.63;12.63;;;4.00;45.20;;;;;;5022895;28;20049;-42
2022/03/03 05:24:28;;;;;;;24.88;13.55;;;4.00;45.30;;;;;;5017417;28;20072;-42
2022/03/03 05:26:55;;;;;;;24.48;12.98;;;4.00;45.30;;;;;;5020130;28;20053;-41
2022/03/03 05:29:25;;;;;;;22.83;12.30;;;3.90;45.20;;;;;;5018916;28;20057;-41
2022/03/03 05:31:53;;;;;;;26.77;12.85;;;3.90;45.30;;;;;;5021041;28;20057;-41
2022/03/03 05:34:20;;;;;;;80.32;35.20;;;3.90;45.30;;;;;;5019752;28;20060;-41
2022/03/03 05:36:48;;;;;;;55.65;24.25;;;3.90;45.40;;;;;;5021209;28;20068;-42
2022/03/03 05:39:17;;;;;;;31.70;15.55;;;3.90;45.40;;;;;;5023712;28;20053;-41
2022/03/03 05:41:44;;;;;;;27.73;13.82;;;3.90;45.40;;;;;;5021686;28;20501;-41
2022/03/03 05:44:13;;;;;;;31.15;14.90;;;3.90;45.50;;;;;;5022361;28;20262;-42
2022/03/03 05:46:43;;;;;;;27.92;14.20;;;3.90;45.60;;;;;;5021638;28;20060;-42
2022/03/03 05:49:11;;;;;;;26.25;13.70;;;3.90;45.70;;;;;;5020647;28;20049;-42
2022/03/03 05:51:39;;;;;;;21.73;12.30;;;3.90;45.70;;;;;;5021938;28;20061;-42
2022/03/03 05:54:07;;;;;;;24.50;13.18;;;3.80;45.60;;;;;;5020403;28;20064;-42
2022/03/03 05:56:39;;;;;;;23.45;13.10;;;3.80;45.60;;;;;;5022475;28;20054;-41
2022/03/03 05:59:09;;;;;;;27.05;13.27;;;3.80;45.70;;;;;;5021890;28;20057;-41
2022/03/03 06:01:38;;;;;;;28.17;14.57;;;3.90;45.70;;;;;;5018979;28;20508;-42
2022/03/03 06:04:10;;;;;;;21.08;12.27;;;3.80;45.60;;;;;;5015137;28;20060;-42
2022/03/03 06:06:38;;;;;;;79.25;32.03;;;3.80;45.60;;;;;;5009121;28;20489;-42
2022/03/03 06:09:13;;;;;;;50.53;23.58;;;3.80;45.60;;;;;;5014266;28;20501;-44
2022/03/03 06:11:47;;;;;;;36.15;16.90;;;3.80;45.80;;;;;;5022213;28;20058;-42
2022/03/03 06:14:20;;;;;;;26.67;13.73;;;3.80;45.70;;;;;;5021196;28;20057;-42
2022/03/03 06:16:51;;;;;;;27.00;13.70;;;3.80;45.70;;;;;;5018991;28;20497;-41
2022/03/03 06:19:21;;;;;;;24.88;13.93;;;3.80;45.80;;;;;;5021639;28;20057;-41
2022/03/03 06:21:52;;;;;;;25.10;13.50;;;3.80;45.80;;;;;;5022092;28;20068;-43
2022/03/03 06:24:20;;;;;;;24.67;13.18;;;3.80;45.80;;;;;;5019554;28;20049;-42
2022/03/03 06:26:48;;;;;;;21.58;12.00;;;3.80;45.80;;;;;;5020853;28;20053;-41
2022/03/03 06:29:17;;;;;;;26.05;13.50;;;3.80;45.80;;;;;;5010415;28;20045;-41
2022/03/03 06:31:46;;;;;;;68.43;28.17;;;3.80;45.80;;;;;;5004331;28;20493;-42
2022/03/03 06:34:13;;;;;;;39.40;18.83;;;3.80;45.80;;;;;;5004582;28;20057;-41
2022/03/03 06:36:43;;;;;;;28.00;14.30;;;3.80;45.80;;;;;;5003274;28;20069;-44
2022/03/03 06:39:12;;;;;;;26.98;13.75;;;3.80;45.90;;;;;;5000522;28;20060;-42
2022/03/03 06:41:40;;;;;;;25.52;12.50;;;3.80;45.90;;;;;;5000090;28;20062;-41
2022/03/03 06:44:08;;;;;;;24.67;12.65;;;3.80;46.00;;;;;;5004882;28;20060;-42
2022/03/03 06:46:38;;;;;;;26.15;14.13;;;3.80;46.10;;;;;;5002048;28;20049;-41
2022/03/03 06:49:05;;;;;;;22.45;12.90;;;3.80;46.20;;;;;;5006972;28;20053;-42
2022/03/03 06:51:40;;;;;;;24.23;13.50;;;3.90;46.20;;;;;;5004442;28;20061;-42
2022/03/03 06:54:15;;;;;;;29.65;13.73;;;3.90;46.20;;;;;;5009777;28;20120;-42
2022/03/03 06:56:48;;;;;;;28.88;14.10;;;3.90;46.30;;;;;;5011655;28;20057;-43
2022/03/03 06:59:17;;;;;;;26.40;14.43;;;3.90;46.30;;;;;;5010420;28;20052;-42
2022/03/03 07:01:47;;;;;;;24.27;12.93;;;3.90;46.30;;;;;;5009821;28;20072;-42
2022/03/03 07:04:16;;;;;;;27.60;13.68;;;3.90;46.20;;;;;;5005554;28;20527;-46
2022/03/03 07:06:44;;;;;;;28.08;13.77;;;3.90;46.20;;;;;;5008671;28;20053;-42
2022/03/03 07:09:14;;;;;;;25.00;13.55;;;4.00;46.30;;;;;;5011002;28;20069;-44
2022/03/03 07:11:43;;;;;;;25.05;14.52;;;4.00;46.30;;;;;;5009204;28;20053;-41
2022/03/03 07:14:12;;;;;;;26.27;13.55;;;4.00;46.30;;;;;;5007659;28;20081;-42
2022/03/03 07:16:42;;;;;;;24.85;14.18;;;4.00;46.40;;;;;;5010157;28;20049;-41
2022/03/03 07:19:25;;;;;;;22.60;13.15;;;4.10;46.30;;;;;;5006657;28;20064;-45
2022/03/03 07:22:03;;;;;;;25.98;14.50;;;4.10;46.30;;;;;;5009313;28;20390;-43
2022/03/03 07:24:34;;;;;;;24.88;13.35;;;4.10;46.20;;;;;;5008597;28;20492;-42
2022/03/03 07:27:05;;;;;;;29.30;14.23;;;4.10;46.10;;;;;;5011937;28;20061;-43
2022/03/03 07:29:34;;;;;;;27.85;13.40;;;4.10;46.00;;;;;;5010756;28;20607;-41
2022/03/03 07:32:07;;;;;;;28.50;13.88;;;4.20;46.10;;;;;;5008371;28;20068;-43
2022/03/03 07:34:37;;;;;;;26.58;13.52;;;4.20;46.00;;;;;;5004874;28;20057;-41
2022/03/03 07:37:08;;;;;;;25.20;13.68;;;4.20;46.00;;;;;;5008810;28;20124;-41
2022/03/03 07:39:42;;;;;;;24.88;12.75;;;4.30;46.00;;;;;;5008658;28;20057;-44
2022/03/03 07:42:13;;;;;;;23.10;12.45;;;4.30;46.10;;;;;;5008680;28;20060;-41
2022/03/03 07:44:41;;;;;;;25.80;13.23;;;4.40;46.10;;;;;;5007493;28;20054;-41
2022/03/03 07:47:10;;;;;;;27.75;15.25;;;4.40;46.00;;;;;;5010503;28;20050;-42
2022/03/03 07:49:40;;;;;;;25.85;13.27;;;4.40;46.40;;;;;;5009543;28;20068;-42
2022/03/03 07:52:09;;;;;;;29.52;14.77;;;4.50;46.50;;;;;;5011077;28;20057;-42
2022/03/03 07:54:37;;;;;;;27.25;13.95;;;4.50;46.70;;;;;;5009256;28;20049;-42
2022/03/03 07:57:09;;;;;;;29.35;14.82;;;4.60;46.80;;;;;;5015775;28;20057;-42
2022/03/03 07:59:39;;;;;;;27.85;14.38;;;4.60;46.80;;;;;;5012979;28;20061;-42
2022/03/03 08:02:07;;;;;;;24.75;13.75;;;4.60;46.50;;;;;;5010789;28;20045;-43
2022/03/03 08:04:37;;;;;;;27.40;14.45;;;4.70;46.60;;;;;;5009997;28;20054;-41
2022/03/03 08:07:06;;;;;;;26.35;13.57;;;4.70;46.50;;;;;;5013403;28;20050;-41
2022/03/03 08:09:37;;;;;;;24.48;14.20;;;4.70;46.40;;;;;;5011186;28;20065;-44
2022/03/03 08:12:08;;;;;;;29.73;13.75;;;4.80;46.40;;;;;;5011885;28;20057;-42
2022/03/03 08:14:37;;;;;;;23.33;12.55;;;4.80;46.40;;;;;;5016990;28;20053;-42
2022/03/03 08:17:05;;;;;;;22.45;13.63;;;4.90;46.30;;;;;;5020608;28;20057;-41
2022/03/03 08:19:33;;;;;;;24.27;13.40;;;5.00;46.30;;;;;;5011257;28;20489;-42
2022/03/03 08:22:01;;;;;;;28.50;13.38;;;5.00;46.20;;;;;;5013569;28;20049;-41
2022/03/03 08:24:29;;;;;;;24.50;13.55;;;5.10;46.10;;;;;;5010997;28;20065;-41
2022/03/03 08:26:58;;;;;;;26.63;13.85;;;5.10;46.10;;;;;;5014232;28;20444;-41
2022/03/03 08:29:27;;;;;;;24.98;13.73;;;5.20;46.00;;;;;;5014373;28;20060;-41
2022/03/03 08:31:58;;;;;;;26.55;13.80;;;5.30;46.00;;;;;;5015040;28;20053;-42
2022/03/03 08:34:34;;;;;;;23.80;13.90;;;5.30;45.90;;;;;;5012736;28;20540;-43
2022/03/03 08:37:09;;;;;;;52.20;23.05;;;5.40;45.80;;;;;;5019667;28;20543;-42
2022/03/03 08:39:39;;;;;;;29.05;14.93;;;5.50;45.80;;;;;;5019243;28;20041;-42
2022/03/03 08:42:09;;;;;;;26.20;14.50;;;5.50;45.60;;;;;;5023701;28;20420;-42
2022/03/03 08:44:41;;;;;;;23.35;13.00;;;5.60;45.40;;;;;;5021900;28;20057;-42
2022/03/03 08:47:13;;;;;;;24.85;13.35;;;5.70;45.40;;;;;;5022717;28;20053;-41
2022/03/03 08:49:44;;;;;;;27.65;13.48;;;5.70;45.30;;;;;;5023687;28;20494;-41
2022/03/03 08:52:12;;;;;;;24.70;13.55;;;5.80;45.30;;;;;;5025264;28;20057;-43
2022/03/03 08:54:40;;;;;;;24.75;12.77;;;5.90;45.30;;;;;;5020605;28;20064;-42
2022/03/03 08:57:08;;;;;;;24.67;13.15;;;5.90;45.20;;;;;;5022881;28;20071;-42
2022/03/03 08:59:36;;;;;;;28.27;14.32;;;6.10;45.20;;;;;;5020667;28;20046;-42
2022/03/03 09:02:05;;;;;;;23.60;13.27;;;6.10;45.30;;;;;;5023319;28;20065;-42
2022/03/03 09:04:33;;;;;;;24.10;12.75;;;6.20;45.60;;;;;;5011915;28;20053;-42
2022/03/03 09:07:01;;;;;;;24.58;13.77;;;6.30;45.10;;;;;;5012083;28;20049;-42
2022/03/03 09:09:29;;;;;;;27.05;14.68;;;6.40;45.00;;;;;;5013392;28;20041;-42
2022/03/03 09:11:59;;;;;;;29.00;14.52;;;6.40;44.80;;;;;;5013217;28;20417;-42
2022/03/03 09:14:27;;;;;;;26.17;13.27;;;6.50;44.70;;;;;;5011207;28;20057;-43
2022/03/03 09:16:55;;;;;;;23.48;12.27;;;6.60;44.80;;;;;;5009980;28;20065;-42
2022/03/03 09:19:24;;;;;;;20.08;12.23;;;6.70;44.80;;;;;;5014333;28;20053;-42
2022/03/03 09:21:52;;;;;;;27.13;13.00;;;6.80;44.80;;;;;;5009909;28;20052;-42
2022/03/03 09:24:20;;;;;;;20.25;11.57;;;6.90;44.70;;;;;;5013810;28;20061;-43
2022/03/03 09:26:49;;;;;;;22.88;12.65;;;6.90;44.50;;;;;;5011256;28;20068;-42
2022/03/03 09:29:17;;;;;;;29.98;12.90;;;7.00;44.30;;;;;;5011347;28;20069;-42
2022/03/03 09:31:46;;;;;;;20.98;12.77;;;7.10;44.30;;;;;;5009564;28;20086;-42
2022/03/03 09:34:14;;;;;;;64.78;27.67;;;7.20;44.30;;;;;;5010456;28;20053;-42
2022/03/03 09:36:43;;;;;;;32.00;17.08;;;7.30;44.40;;;;;;5010719;28;20701;-42
2022/03/03 09:39:11;;;;;;;24.48;13.35;;;7.30;44.40;;;;;;5011248;28;20041;-42
2022/03/03 09:41:39;;;;;;;24.92;13.43;;;7.50;44.40;;;;;;5007938;28;20084;-42
2022/03/03 09:44:07;;;;;;;23.15;12.48;;;7.50;44.20;;;;;;5009928;28;20521;-43
2022/03/03 09:46:36;;;;;;;20.20;12.30;;;7.60;44.30;;;;;;5010194;28;20057;-42
2022/03/03 09:49:05;;;;;;;25.08;13.20;;;7.70;44.30;;;;;;5015930;28;20401;-41
2022/03/03 09:51:33;;;;;;;31.13;12.93;;;7.80;44.20;;;;;;5007633;28;20080;-44
2022/03/03 09:54:02;;;;;;;23.00;12.93;;;7.90;44.10;;;;;;5011062;28;20064;-44
2022/03/03 09:56:31;;;;;;;22.98;12.00;;;7.90;43.90;;;;;;5013640;28;20045;-42
2022/03/03 09:59:00;;;;;;;26.42;12.85;;;8.00;43.60;;;;;;5019426;28;20596;-43
2022/03/03 10:01:28;;;;;;;23.25;12.35;;;8.10;43.40;;;;;;5022618;28;20061;-42
2022/03/03 10:03:59;;;;;;;24.45;12.55;;;8.20;43.50;;;;;;5021659;28;20068;-44
2022/03/03 10:06:28;;;;;;;18.98;11.23;;;8.30;43.40;;;;;;5014532;28;20523;-42
2022/03/03 10:08:55;;;;;;;22.73;11.15;;;8.30;43.30;;;;;;5021905;28;20455;-42
2022/03/03 10:11:25;;;;;;;25.38;12.90;;;8.50;43.30;;;;;;5022441;28;20064;-42
2022/03/03 10:13:53;;;;;;;23.00;12.00;;;8.50;42.90;;;;;;5023123;28;20842;-41
2022/03/03 10:16:24;;;;;;;25.08;12.40;;;8.60;43.00;;;;;;5022931;28;20501;-44
2022/03/03 10:18:59;;;;;;;19.58;11.90;;;8.70;42.20;;;;;;5021994;28;20049;-43
2022/03/03 10:21:28;;;;;;;21.40;11.73;;;8.80;42.20;;;;;;5023158;28;20893;-41
2022/03/03 10:23:58;;;;;;;23.17;11.57;;;8.90;41.90;;;;;;5022909;28;20041;-42
2022/03/03 10:26:38;;;;;;;23.15;11.48;;;8.90;41.60;;;;;;5023355;28;20481;-44
2022/03/03 10:29:16;;;;;;;24.67;12.85;;;9.00;41.40;;;;;;5022724;28;20076;-42
2022/03/03 10:31:48;;;;;;;21.55;12.18;;;9.10;41.50;;;;;;5023415;28;20049;-41
2022/03/03 10:34:18;;;;;;;26.85;12.00;;;9.20;41.70;;;;;;5015899;28;20048;-41
2022/03/03 10:36:55;;;;;;;20.80;12.50;;;9.30;42.00;;;;;;5015751;28;20053;-44
2022/03/03 10:39:23;;;;;;;30.17;13.57;;;9.30;42.00;;;;;;5021788;28;20512;-42
2022/03/03 10:41:56;;;;;;;24.17;12.95;;;9.40;41.90;;;;;;5022803;28;20053;-41
2022/03/03 10:44:24;;;;;;;20.50;11.23;;;9.50;41.80;;;;;;5021351;28;20521;-42
2022/03/03 10:47:02;;;;;;;23.33;11.77;;;9.50;41.90;;;;;;5017088;28;20060;-42
2022/03/03 10:49:30;;;;;;;25.98;13.65;;;9.50;42.00;;;;;;5007416;28;20049;-42
2022/03/03 10:52:14;;;;;;;22.63;12.65;;;9.60;42.00;;;;;;5016819;28;20068;-42
2022/03/03 10:54:53;;;;;;;20.42;12.30;;;9.70;41.80;;;;;;5009123;28;20053;-46
2022/03/03 10:57:38;;;;;;;22.35;11.68;;;9.70;41.50;;;;;;5012721;28;20061;-43
2022/03/03 11:00:10;;;;;;;24.58;11.73;;;9.70;41.30;;;;;;5010666;28;20050;-42
2022/03/03 11:02:40;;;;;;;23.58;11.98;;;9.80;41.60;;;;;;5020560;28;20386;-41
2022/03/03 11:05:10;;;;;;;24.02;12.00;;;9.80;41.40;;;;;;5020592;28;20049;-41
2022/03/03 11:07:42;;;;;;;20.23;11.32;;;9.90;41.40;;;;;;5021956;28;20503;-41
2022/03/03 11:10:11;;;;;;;19.50;11.52;;;9.90;41.20;;;;;;5022108;28;20052;-42
2022/03/03 11:12:40;;;;;;;21.63;11.60;;;10.00;41.40;;;;;;5022570;28;20061;-41
2022/03/03 11:15:09;;;;;;;20.00;12.23;;;10.00;41.20;;;;;;5019498;28;20632;-42
2022/03/03 11:17:37;;;;;;;20.73;11.82;;;10.10;41.40;;;;;;5012887;28;20053;-42
2022/03/03 11:20:09;;;;;;;17.80;10.95;;;10.10;41.30;;;;;;5007902;28;20060;-41
2022/03/03 11:22:36;;;;;;;18.23;10.63;;;10.10;41.00;;;;;;5012420;28;20057;-41
2022/03/03 11:25:09;;;;;;;19.10;11.02;;;10.20;40.80;;;;;;5009857;28;20046;-43
2022/03/03 11:27:40;;;;;;;18.75;10.88;;;10.20;40.70;;;;;;5014257;28;20053;-41
2022/03/03 11:30:28;;;;;;;18.23;11.65;;;10.20;40.70;;;;;;5008661;28;20069;-41
2022/03/03 11:33:22;;;;;;;20.20;11.77;;;10.30;40.00;;;;;;5011109;28;20513;-42
2022/03/03 11:35:52;;;;;;;19.17;11.27;;;10.40;40.20;;;;;;5010222;28;20057;-43
2022/03/03 11:38:21;;;;;;;17.70;10.73;;;10.40;40.10;;;;;;4995153;28;20046;-46
2022/03/03 11:40:56;;;;;;;16.63;10.95;;;10.40;40.10;;;;;;5011010;28;20112;-41
2022/03/03 11:43:28;;;;;;;23.15;11.18;;;10.50;39.80;;;;;;5010313;28;20061;-42
2022/03/03 11:45:58;;;;;;;18.77;11.20;;;10.50;39.70;;;;;;5011000;28;20057;-45
2022/03/03 11:48:38;;;;;;;21.75;10.93;;;10.50;39.70;;;;;;5013216;28;20057;-41
2022/03/03 11:51:33;;;;;;;18.10;10.15;;;10.60;38.60;;;;;;5014985;28;20056;-41
2022/03/03 11:54:08;;;;;;;19.58;11.20;;;10.60;38.50;;;;;;5009755;28;20048;-44
2022/03/03 11:56:35;;;;;;;18.08;10.02;;;10.70;38.10;;;;;;5010204;28;20064;-41
2022/03/03 11:59:14;;;;;;;20.00;10.35;;;10.70;38.40;;;;;;5009699;28;20068;-42
2022/03/03 12:01:56;;;;;;;17.35;10.57;;;10.80;38.00;;;;;;5010893;28;20064;-41
2022/03/03 12:04:26;;;;;;;14.93;9.38;;;10.80;37.00;;;;;;5009711;28;20050;-42
2022/03/03 12:06:55;;;;;;;17.42;9.40;;;10.90;36.90;;;;;;5011906;28;20057;-41
2022/03/03 12:09:26;;;;;;;15.27;9.20;;;10.90;36.70;;;;;;5011956;28;20801;-41
2022/03/03 12:12:12;;;;;;;15.32;9.38;;;11.00;36.70;;;;;;5010872;28;20058;-42
2022/03/03 12:14:51;;;;;;;16.58;8.73;;;11.00;36.50;;;;;;5010256;28;20061;-41
2022/03/03 12:17:40;;;;;;;14.02;8.68;;;11.10;36.60;;;;;;5012780;28;20053;-43
2022/03/03 12:20:34;;;;;;;15.35;8.77;;;11.10;35.40;;;;;;5008453;28;20057;-41
2022/03/03 12:23:07;;;;;;;14.25;8.63;;;11.20;34.80;;;;;;5012255;28;20501;-44
2022/03/03 12:25:59;;;;;;;13.70;8.73;;;11.20;34.90;;;;;;5008633;28;20088;-44
2022/03/03 12:28:34;;;;;;;13.05;8.15;;;11.30;34.50;;;;;;5006877;28;20060;-44
2022/03/03 12:31:20;;;;;;;15.77;8.70;;;11.30;34.50;;;;;;5009986;28;20057;-42
2022/03/03 12:33:59;;;;;;;12.82;8.00;;;11.30;35.00;;;;;;5019959;28;20060;-44
2022/03/03 12:36:27;;;;;;;12.70;7.32;;;11.40;35.90;;;;;;5022654;28;20061;-42
2022/03/03 12:38:56;;;;;;;13.20;7.40;;;11.40;35.30;;;;;;5023981;28;20052;-41
2022/03/03 12:41:26;;;;;;;14.88;7.25;;;11.50;34.50;;;;;;5018421;28;20057;-41
2022/03/03 12:44:02;;;;;;;12.25;6.78;;;11.50;33.80;;;;;;5010707;28;20045;-46
2022/03/03 12:46:32;;;;;;;14.88;7.57;;;11.50;33.80;;;;;;5016648;28;20408;-44
2022/03/03 12:49:04;;;;;;;13.65;7.53;;;11.60;33.90;;;;;;5015025;28;20410;-43
2022/03/03 12:51:32;;;;;;;14.15;6.63;;;11.60;33.70;;;;;;5013481;28;20056;-43
2022/03/03 12:54:04;;;;;;;11.73;7.45;;;11.70;33.40;;;;;;5015510;28;20065;-43